Time;durP1;ratioP1;P1;durP2;ratioP2;P2;SDS_P1;SDS_P2;PMS_P1;PMS_P2;Temp;Humidity;BMP_temperature;BMP_pressure;BME280_temperature;BME280_humidity;BME280_pressure;Samples;Min_cycle;Max_cycle;Signal;HPM_P1;HPM_P2
2024/05/07 00:01:18;;;;;;;2.60;0.70;;;12.20;99.90;;;;;;5381671;26;20003;-71
2024/05/07 00:03:44;;;;;;;1.13;0.60;;;12.20;99.90;;;;;;5380767;26;20011;-72
2024/05/07 00:06:10;;;;;;;5.57;0.80;;;12.20;99.90;;;;;;5381697;26;20012;-72
2024/05/07 00:08:36;;;;;;;1.80;0.60;;;12.20;99.90;;;;;;5381000;26;19996;-70
2024/05/07 00:11:02;;;;;;;2.85;0.63;;;12.20;99.90;;;;;;5381662;26;20102;-71
2024/05/07 00:13:28;;;;;;;6.28;0.90;;;12.20;99.90;;;;;;5349908;26;20012;-72
2024/05/07 00:15:54;;;;;;;1.20;0.60;;;12.10;99.90;;;;;;5346887;26;20005;-72
2024/05/07 00:18:19;;;;;;;1.50;0.63;;;12.10;99.90;;;;;;5378252;26;19996;-71
2024/05/07 00:20:45;;;;;;;4.38;1.00;;;12.00;99.90;;;;;;5381354;26;20000;-72
2024/05/07 00:23:10;;;;;;;2.47;0.77;;;12.10;99.90;;;;;;5373111;26;19997;-72
2024/05/07 00:25:42;;;;;;;1.25;0.65;;;12.00;99.90;;;;;;5346394;26;20012;-72
2024/05/07 00:28:08;;;;;;;3.88;0.70;;;12.00;99.90;;;;;;5314856;26;20329;-71
2024/05/07 00:30:34;;;;;;;2.88;0.80;;;12.00;99.90;;;;;;5380295;26;20324;-72
2024/05/07 00:32:59;;;;;;;2.00;0.60;;;12.00;99.90;;;;;;5381688;26;20004;-71
2024/05/07 00:35:25;;;;;;;2.05;0.90;;;12.00;99.90;;;;;;5380159;26;20028;-71
2024/05/07 00:37:51;;;;;;;2.08;1.00;;;12.10;99.90;;;;;;5381150;26;20000;-71
2024/05/07 00:40:17;;;;;;;3.63;0.85;;;12.10;99.90;;;;;;5381160;26;19996;-72
2024/05/07 00:42:53;;;;;;;3.20;0.98;;;12.10;99.90;;;;;;5357475;26;20005;-71
2024/05/07 00:45:19;;;;;;;1.85;0.70;;;12.10;99.90;;;;;;5346008;26;20070;-71
2024/05/07 00:47:45;;;;;;;0.60;0.45;;;12.10;99.90;;;;;;5363791;26;20000;-72
2024/05/07 00:50:14;;;;;;;2.38;0.88;;;12.10;99.90;;;;;;5381308;26;20460;-72
2024/05/07 00:52:40;;;;;;;1.42;0.73;;;12.10;99.90;;;;;;5380861;26;20081;-71
2024/05/07 00:55:08;;;;;;;2.45;0.82;;;12.10;99.90;;;;;;5354178;26;20013;-71
2024/05/07 00:57:34;;;;;;;2.17;0.88;;;12.10;99.90;;;;;;5345795;26;20001;-71
2024/05/07 01:00:01;;;;;;;2.33;0.80;;;12.10;99.90;;;;;;5374820;26;20000;-71
2024/05/07 01:02:26;;;;;;;2.63;0.77;;;12.10;99.90;;;;;;5381092;26;20028;-72
2024/05/07 01:04:52;;;;;;;1.02;0.70;;;12.10;99.90;;;;;;5379745;26;20019;-70
2024/05/07 01:07:18;;;;;;;1.58;0.70;;;12.10;99.90;;;;;;5380856;26;20011;-70
2024/05/07 01:09:44;;;;;;;2.28;0.88;;;12.10;99.90;;;;;;5361996;26;20457;-70
2024/05/07 01:12:10;;;;;;;1.75;0.80;;;12.00;99.90;;;;;;5345189;26;20005;-71
2024/05/07 01:14:36;;;;;;;3.30;0.90;;;12.00;99.90;;;;;;5345750;26;19993;-72
2024/05/07 01:17:02;;;;;;;2.42;0.93;;;11.90;99.90;;;;;;5345437;26;20375;-72
2024/05/07 01:19:28;;;;;;;1.23;0.60;;;11.80;99.90;;;;;;5374500;26;20024;-72
2024/05/07 01:22:02;;;;;;;2.67;0.93;;;11.70;99.90;;;;;;5380137;26;20595;-71
2024/05/07 01:24:28;;;;;;;1.55;0.73;;;11.50;99.90;;;;;;5352044;26;20001;-72
2024/05/07 01:26:54;;;;;;;1.63;0.80;;;11.50;99.90;;;;;;5345544;26;20009;-72
2024/05/07 01:29:19;;;;;;;3.97;1.10;;;11.30;99.90;;;;;;5366948;26;19992;-72
2024/05/07 01:31:45;;;;;;;6.63;1.17;;;11.20;99.90;;;;;;5380103;26;20453;-71
2024/05/07 01:34:11;;;;;;;2.20;0.85;;;11.10;99.90;;;;;;5379722;26;20020;-72
2024/05/07 01:36:40;;;;;;;1.83;0.93;;;11.00;99.90;;;;;;5348964;26;19996;-71
2024/05/07 01:39:05;;;;;;;2.03;0.95;;;11.00;99.90;;;;;;5382734;26;20023;-71
2024/05/07 01:41:31;;;;;;;2.72;1.13;;;10.90;99.90;;;;;;5383288;26;20028;-71
2024/05/07 01:43:57;;;;;;;4.32;1.00;;;10.90;99.90;;;;;;5382803;26;19996;-71
2024/05/07 01:46:23;;;;;;;4.75;0.90;;;10.90;99.90;;;;;;5383817;26;20330;-70
2024/05/07 01:48:48;;;;;;;2.85;0.98;;;10.80;99.90;;;;;;5383230;26;20000;-72
2024/05/07 01:51:14;;;;;;;2.20;1.15;;;10.80;99.90;;;;;;5383741;26;20037;-71
2024/05/07 01:53:40;;;;;;;2.20;1.20;;;10.70;99.90;;;;;;5379915;26;20011;-72
2024/05/07 01:56:09;;;;;;;2.63;1.20;;;10.70;99.90;;;;;;5348407;26;20008;-72
2024/05/07 01:58:35;;;;;;;1.92;0.90;;;10.60;99.90;;;;;;5348399;26;20587;-71
2024/05/07 02:01:01;;;;;;;2.33;1.15;;;10.60;99.90;;;;;;5354714;26;20031;-71
2024/05/07 02:03:27;;;;;;;2.13;1.05;;;10.50;99.90;;;;;;5382945;26;20000;-70
2024/05/07 02:05:53;;;;;;;3.60;1.10;;;10.50;99.90;;;;;;5375307;26;20074;-72
2024/05/07 02:08:19;;;;;;;6.47;1.38;;;10.40;99.90;;;;;;5348412;26;20007;-70
2024/05/07 02:10:44;;;;;;;2.08;1.10;;;10.50;99.90;;;;;;5348470;26;20001;-72
2024/05/07 02:13:10;;;;;;;3.58;1.10;;;10.40;99.90;;;;;;5347846;26;20001;-71
2024/05/07 02:15:36;;;;;;;3.65;1.15;;;10.40;99.90;;;;;;5317362;26;20345;-70
2024/05/07 02:18:02;;;;;;;4.78;1.35;;;10.40;99.90;;;;;;5348419;26;20037;-71
2024/05/07 02:20:28;;;;;;;5.70;1.40;;;10.40;99.90;;;;;;5374031;26;19996;-71
2024/05/07 02:22:54;;;;;;;3.78;1.50;;;10.40;99.90;;;;;;5382910;26;20348;-71
2024/05/07 02:25:19;;;;;;;2.83;1.33;;;10.40;99.90;;;;;;5382948;26;20000;-70
2024/05/07 02:27:45;;;;;;;5.13;1.10;;;10.40;99.90;;;;;;5372863;26;20326;-71
2024/05/07 02:30:11;;;;;;;3.88;1.38;;;10.50;99.90;;;;;;5348047;26;20001;-72
2024/05/07 02:32:36;;;;;;;3.55;1.48;;;10.50;99.90;;;;;;5347993;26;19997;-72
2024/05/07 02:35:02;;;;;;;3.45;1.67;;;10.50;99.90;;;;;;5364192;26;20040;-71
2024/05/07 02:37:30;;;;;;;5.05;1.42;;;10.50;99.90;;;;;;5347766;26;20337;-71
2024/05/07 02:39:56;;;;;;;3.08;1.40;;;10.50;99.90;;;;;;5355154;26;20035;-70
2024/05/07 02:42:21;;;;;;;3.33;1.33;;;10.50;99.90;;;;;;5382937;26;20000;-71
2024/05/07 02:44:47;;;;;;;4.15;1.33;;;10.50;99.90;;;;;;5382484;26;19996;-71
2024/05/07 02:47:13;;;;;;;2.67;1.25;;;10.50;99.90;;;;;;5383103;26;20074;-71
2024/05/07 02:49:38;;;;;;;2.53;0.90;;;10.40;99.90;;;;;;5381367;26;20011;-72
2024/05/07 02:52:06;;;;;;;5.10;1.40;;;10.40;99.90;;;;;;5382585;26;20015;-71
2024/05/07 02:54:31;;;;;;;2.72;1.00;;;10.30;99.90;;;;;;5382298;26;20077;-72
2024/05/07 02:56:57;;;;;;;3.00;1.48;;;10.30;99.90;;;;;;5382505;26;20016;-71
2024/05/07 02:59:22;;;;;;;3.38;1.13;;;10.20;99.90;;;;;;5382525;26;20011;-72
2024/05/07 03:01:48;;;;;;;1.92;1.00;;;10.20;99.90;;;;;;5382783;26;20011;-71
2024/05/07 03:04:14;;;;;;;3.60;1.20;;;10.20;99.90;;;;;;5355060;26;20074;-71
2024/05/07 03:06:42;;;;;;;1.92;1.00;;;10.10;99.90;;;;;;5347291;26;20013;-71
2024/05/07 03:09:08;;;;;;;2.20;1.25;;;10.00;99.90;;;;;;5347228;26;20000;-70
2024/05/07 03:11:40;;;;;;;2.83;1.38;;;9.90;99.90;;;;;;5347315;26;20001;-71
2024/05/07 03:14:06;;;;;;;3.63;1.20;;;9.80;99.90;;;;;;5347103;26;20000;-70
2024/05/07 03:16:40;;;;;;;4.32;1.25;;;9.80;99.90;;;;;;5347622;26;20011;-71
2024/05/07 03:19:09;;;;;;;7.07;1.52;;;9.80;99.90;;;;;;5347705;26;19989;-71
2024/05/07 03:21:41;;;;;;;3.30;1.40;;;9.70;99.90;;;;;;5368946;26;20000;-70
2024/05/07 03:24:10;;;;;;;;;;;9.70;99.90;;;;;;5366104;26;20032;-70
2024/05/07 03:26:36;;;;;;;3.55;1.40;;;9.70;99.90;;;;;;5371089;26;19937;-70
2024/05/07 03:29:02;;;;;;;3.28;1.23;;;9.60;99.90;;;;;;5380043;26;20067;-70
2024/05/07 03:31:31;;;;;;;5.10;1.23;;;9.60;99.90;;;;;;5346873;26;20001;-72
2024/05/07 03:34:05;;;;;;;2.85;1.10;;;9.60;99.90;;;;;;5346493;26;20318;-70
2024/05/07 03:36:31;;;;;;;4.18;1.10;;;9.60;99.90;;;;;;5347218;26;20000;-70
2024/05/07 03:38:57;;;;;;;3.35;1.38;;;9.70;99.90;;;;;;5349324;26;20011;-71
2024/05/07 03:41:22;;;;;;;3.38;1.33;;;9.70;99.90;;;;;;5382006;26;20476;-70
2024/05/07 03:43:48;;;;;;;2.72;1.38;;;9.70;99.90;;;;;;5381497;26;20000;-71
2024/05/07 03:46:13;;;;;;;4.15;1.77;;;9.70;99.90;;;;;;5381637;26;20004;-70
2024/05/07 03:48:39;;;;;;;2.47;1.08;;;9.60;99.90;;;;;;5381982;26;20006;-71
2024/05/07 03:51:06;;;;;;;5.40;1.45;;;9.60;99.90;;;;;;5379144;26;20011;-72
2024/05/07 03:53:31;;;;;;;3.35;1.50;;;9.50;99.90;;;;;;5346746;26;20074;-71
2024/05/07 03:55:57;;;;;;;5.85;1.58;;;9.60;99.90;;;;;;5381268;26;20016;-71
2024/05/07 03:58:23;;;;;;;5.10;1.80;;;9.60;99.90;;;;;;5381310;26;19996;-71
2024/05/07 04:00:49;;;;;;;4.13;1.33;;;9.60;99.90;;;;;;5380804;26;20072;-71
2024/05/07 04:03:19;;;;;;;6.20;1.58;;;9.50;99.90;;;;;;5380883;26;19996;-71
2024/05/07 04:05:45;;;;;;;5.97;1.40;;;9.40;99.90;;;;;;5350041;26;20372;-72
2024/05/07 04:08:11;;;;;;;2.90;1.30;;;9.40;99.90;;;;;;5380970;26;20018;-72
2024/05/07 04:10:37;;;;;;;2.78;1.50;;;9.50;99.90;;;;;;5362326;26;20001;-71
2024/05/07 04:13:04;;;;;;;3.45;1.48;;;9.50;99.90;;;;;;5354912;26;20004;-72
2024/05/07 04:15:29;;;;;;;3.55;1.23;;;9.50;99.90;;;;;;5380805;26;20000;-72
2024/05/07 04:17:57;;;;;;;5.63;1.40;;;9.50;99.90;;;;;;5381027;26;20026;-71
2024/05/07 04:20:24;;;;;;;2.15;1.25;;;9.60;99.90;;;;;;5365928;26;20005;-71
2024/05/07 04:22:49;;;;;;;3.50;1.30;;;9.60;99.90;;;;;;5345985;26;20001;-70
2024/05/07 04:25:15;;;;;;;4.35;1.63;;;9.60;99.90;;;;;;5371849;26;20001;-71
2024/05/07 04:27:41;;;;;;;4.00;1.60;;;9.60;99.90;;;;;;5380536;26;20008;-71
2024/05/07 04:30:07;;;;;;;7.20;1.88;;;9.60;99.90;;;;;;5380953;26;20063;-72
2024/05/07 04:32:32;;;;;;;3.65;1.75;;;9.60;99.90;;;;;;5311929;27;20017;-72
2024/05/07 04:34:58;;;;;;;7.40;1.70;;;9.70;99.90;;;;;;5310832;27;20001;-72
2024/05/07 04:37:25;;;;;;;3.83;1.40;;;9.80;99.90;;;;;;5356790;26;20004;-71
2024/05/07 04:39:51;;;;;;;5.53;2.38;;;9.90;99.90;;;;;;5380825;26;20456;-71
2024/05/07 04:42:16;;;;;;;2.97;1.25;;;9.90;99.90;;;;;;5380389;26;20015;-70
2024/05/07 04:44:42;;;;;;;2.90;1.30;;;10.00;99.90;;;;;;5380077;26;19992;-72
2024/05/07 04:47:07;;;;;;;2.38;1.40;;;10.00;99.90;;;;;;5380606;26;20076;-72
2024/05/07 04:49:33;;;;;;;2.97;1.50;;;10.10;99.90;;;;;;5348458;26;20016;-72
2024/05/07 04:51:59;;;;;;;3.13;1.33;;;10.20;99.90;;;;;;5345166;26;20001;-72
2024/05/07 04:54:24;;;;;;;3.28;1.23;;;10.30;99.90;;;;;;5372486;26;19992;-72
2024/05/07 04:56:50;;;;;;;2.95;1.42;;;10.30;99.90;;;;;;5354376;26;20001;-70
2024/05/07 04:59:15;;;;;;;2.53;1.48;;;10.40;99.90;;;;;;5359524;26;20024;-70
2024/05/07 05:01:41;;;;;;;4.50;1.50;;;10.50;99.90;;;;;;5348394;26;20454;-70
2024/05/07 05:04:07;;;;;;;2.83;1.40;;;10.60;99.90;;;;;;5363791;26;20004;-72
2024/05/07 05:06:32;;;;;;;3.38;1.60;;;10.80;99.90;;;;;;5355401;26;19997;-71
2024/05/07 05:08:58;;;;;;;6.03;1.67;;;10.90;99.90;;;;;;5379390;26;20005;-72
2024/05/07 05:11:24;;;;;;;3.80;1.40;;;11.00;99.90;;;;;;5357201;26;20366;-71
2024/05/07 05:13:49;;;;;;;3.72;1.52;;;11.30;99.90;;;;;;5346313;26;20011;-72
2024/05/07 05:16:15;;;;;;;2.97;1.30;;;11.50;99.90;;;;;;5347575;26;20402;-71
2024/05/07 05:18:41;;;;;;;3.30;1.38;;;12.20;99.90;;;;;;5347731;26;20417;-70
2024/05/07 05:21:06;;;;;;;2.60;1.40;;;13.50;99.90;;;;;;5348307;26;20011;-70
2024/05/07 05:23:32;;;;;;;3.60;0.98;;;13.90;99.90;;;;;;5367846;26;20099;-72
2024/05/07 05:25:58;;;;;;;2.05;1.10;;;13.80;99.90;;;;;;5348044;26;20348;-71
2024/05/07 05:28:23;;;;;;;5.20;1.00;;;14.10;99.90;;;;;;5351037;26;20013;-71
2024/05/07 05:30:49;;;;;;;1.55;0.80;;;14.10;99.90;;;;;;5352457;26;20013;-71
2024/05/07 05:33:14;;;;;;;2.65;1.20;;;14.00;99.90;;;;;;5353721;26;20409;-71
2024/05/07 05:35:41;;;;;;;2.08;0.98;;;14.00;99.90;;;;;;5350322;26;20000;-70
2024/05/07 05:38:06;;;;;;;2.55;0.80;;;13.80;99.90;;;;;;5370726;26;20001;-71
2024/05/07 05:40:33;;;;;;;2.28;0.80;;;13.90;99.90;;;;;;5358504;26;20359;-70
2024/05/07 05:42:58;;;;;;;1.40;0.65;;;13.90;99.90;;;;;;5382953;26;20019;-71
2024/05/07 05:45:24;;;;;;;1.15;0.60;;;13.90;99.90;;;;;;5382677;26;20004;-71
2024/05/07 05:47:49;;;;;;;1.83;0.93;;;13.90;99.90;;;;;;5376383;26;20009;-70
2024/05/07 05:50:18;;;;;;;3.92;1.20;;;13.90;99.90;;;;;;5345525;26;20048;-71
2024/05/07 05:52:45;;;;;;;2.60;0.70;;;13.90;99.90;;;;;;5347421;26;20484;-69
2024/05/07 05:55:11;;;;;;;3.10;1.15;;;14.10;99.90;;;;;;5346782;26;20465;-69
2024/05/07 05:57:36;;;;;;;2.25;0.70;;;14.30;99.90;;;;;;5365229;26;20066;-72
2024/05/07 06:00:02;;;;;;;3.92;0.70;;;14.80;99.90;;;;;;5365337;26;20008;-73
2024/05/07 06:02:28;;;;;;;3.38;0.70;;;15.10;99.90;;;;;;5349364;26;19997;-74
2024/05/07 06:04:53;;;;;;;3.58;1.00;;;15.40;99.90;;;;;;5364672;26;20463;-74
2024/05/07 06:07:19;;;;;;;21.58;2.78;;;15.50;99.90;;;;;;5377938;26;19997;-74
2024/05/07 06:09:44;;;;;;;4.55;1.85;;;16.40;99.90;;;;;;5347577;26;20001;-74
2024/05/07 06:12:10;;;;;;;5.78;0.90;;;19.40;99.90;;;;;;5347285;26;20456;-75
2024/05/07 06:14:35;;;;;;;4.05;0.88;;;21.20;95.20;;;;;;5347906;26;20013;-76
2024/05/07 06:17:01;;;;;;;2.25;0.57;;;23.00;90.00;;;;;;5347950;26;20086;-75
2024/05/07 06:19:27;;;;;;;2.45;0.60;;;23.70;82.80;;;;;;5375370;26;20011;-75
2024/05/07 06:21:52;;;;;;;1.15;0.60;;;23.90;78.30;;;;;;5382499;26;20756;-74
2024/05/07 06:24:18;;;;;;;3.95;0.77;;;23.00;80.10;;;;;;5381204;26;20058;-75
2024/05/07 06:26:43;;;;;;;7.72;1.00;;;23.60;77.20;;;;;;5382394;26;20344;-75
2024/05/07 06:29:10;;;;;;;2.30;0.73;;;23.60;75.90;;;;;;5380076;26;20000;-75
2024/05/07 06:31:36;;;;;;;1.50;0.68;;;23.70;75.50;;;;;;5382322;26;20015;-74
2024/05/07 06:34:02;;;;;;;5.07;1.20;;;24.40;74.40;;;;;;5382119;26;20011;-74
2024/05/07 06:36:27;;;;;;;3.22;0.95;;;24.60;72.70;;;;;;5382088;26;19993;-75
2024/05/07 06:38:53;;;;;;;2.55;0.80;;;25.10;71.00;;;;;;5382457;26;20100;-75
2024/05/07 06:41:18;;;;;;;1.98;0.52;;;24.80;70.60;;;;;;5382381;26;20012;-73
2024/05/07 06:43:44;;;;;;;2.38;0.52;;;24.80;69.70;;;;;;5347007;26;20011;-86
2024/05/07 06:46:10;;;;;;;1.63;0.80;;;24.60;70.00;;;;;;5346675;26;20012;-76
2024/05/07 06:48:35;;;;;;;1.80;0.80;;;25.30;68.30;;;;;;5350072;26;20011;-75
2024/05/07 06:51:01;;;;;;;1.70;0.63;;;25.20;68.30;;;;;;5373614;26;20008;-75
2024/05/07 06:53:27;;;;;;;1.45;0.57;;;24.80;68.80;;;;;;5357253;26;20000;-76
2024/05/07 06:55:52;;;;;;;3.97;0.70;;;24.60;69.00;;;;;;5377234;26;20131;-75
2024/05/07 06:58:18;;;;;;;2.05;0.70;;;24.50;68.50;;;;;;5381390;26;20515;-75
2024/05/07 07:00:44;;;;;;;2.10;0.70;;;24.60;68.20;;;;;;5361581;26;20078;-75
2024/05/07 07:03:11;;;;;;;5.88;0.70;;;23.90;68.90;;;;;;5349375;26;20104;-75
2024/05/07 07:05:37;;;;;;;1.90;0.40;;;23.60;70.80;;;;;;5366210;26;20425;-73
2024/05/07 07:08:02;;;;;;;3.33;0.60;;;23.10;72.70;;;;;;5370011;26;20066;-74
2024/05/07 07:10:29;;;;;;;2.90;0.70;;;23.70;70.80;;;;;;5380354;26;20004;-75
2024/05/07 07:12:55;;;;;;;2.05;0.70;;;23.60;70.40;;;;;;5381057;26;20341;-75
2024/05/07 07:15:20;;;;;;;8.63;1.35;;;24.00;70.20;;;;;;5380450;26;20012;-76
2024/05/07 07:17:46;;;;;;;3.80;0.70;;;24.20;70.20;;;;;;5381782;26;20007;-73
2024/05/07 07:20:13;;;;;;;1.95;0.60;;;25.20;67.70;;;;;;5381267;26;20397;-73
2024/05/07 07:22:39;;;;;;;2.88;0.73;;;26.10;65.80;;;;;;5371045;26;20051;-74
2024/05/07 07:25:07;;;;;;;1.75;0.70;;;26.00;65.50;;;;;;5346636;26;20005;-73
2024/05/07 07:27:32;;;;;;;2.45;0.50;;;25.10;65.30;;;;;;5346598;26;20016;-73
2024/05/07 07:29:58;;;;;;;3.28;0.80;;;24.20;68.10;;;;;;5374386;26;20004;-73
2024/05/07 07:32:23;;;;;;;15.30;2.50;;;23.00;70.70;;;;;;5381772;26;19999;-73
2024/05/07 07:34:49;;;;;;;7.18;1.10;;;23.00;70.20;;;;;;5380434;26;20008;-75
2024/05/07 07:37:15;;;;;;;3.25;1.30;;;23.30;71.50;;;;;;5381045;26;20068;-76
2024/05/07 07:39:40;;;;;;;7.15;1.17;;;24.40;68.40;;;;;;5381271;26;20047;-76
2024/05/07 07:42:06;;;;;;;2.13;0.70;;;24.80;67.70;;;;;;5367666;26;19993;-75
2024/05/07 07:44:32;;;;;;;2.72;0.80;;;25.10;67.10;;;;;;5326797;26;19996;-73
2024/05/07 07:46:58;;;;;;;4.80;0.65;;;25.50;66.20;;;;;;5338613;26;20004;-74
2024/05/07 07:49:23;;;;;;;2.10;0.77;;;26.00;64.40;;;;;;5380933;26;20475;-74
2024/05/07 07:51:49;;;;;;;11.20;2.33;;;25.70;66.30;;;;;;5361806;26;20001;-75
2024/05/07 07:54:15;;;;;;;3.70;1.02;;;25.60;64.90;;;;;;5345652;26;19993;-74
2024/05/07 07:56:41;;;;;;;2.95;0.93;;;26.80;63.40;;;;;;5346335;26;20011;-75
2024/05/07 07:59:07;;;;;;;6.13;1.30;;;27.80;60.60;;;;;;5349225;26;20016;-75
2024/05/07 08:01:32;;;;;;;15.88;2.67;;;28.20;59.80;;;;;;5378817;26;20004;-76
2024/05/07 08:03:58;;;;;;;3.38;1.00;;;28.60;58.30;;;;;;5343150;26;20001;-77
2024/05/07 08:06:23;;;;;;;4.57;1.15;;;29.00;56.90;;;;;;5346690;26;20438;-75
2024/05/07 08:08:49;;;;;;;5.18;1.10;;;28.70;56.90;;;;;;5346211;26;19993;-75
2024/05/07 08:11:15;;;;;;;3.05;0.80;;;28.80;56.90;;;;;;5371601;26;20000;-76
2024/05/07 08:13:40;;;;;;;8.25;1.45;;;29.30;56.50;;;;;;5381332;26;20033;-76
2024/05/07 08:16:06;;;;;;;3.75;1.27;;;29.80;55.40;;;;;;5374520;26;20087;-77
2024/05/07 08:18:33;;;;;;;2.53;1.30;;;29.60;53.80;;;;;;5370531;26;20000;-77
2024/05/07 08:21:00;;;;;;;2.90;1.08;;;27.60;56.20;;;;;;5368869;26;20065;-76
2024/05/07 08:23:26;;;;;;;6.20;1.25;;;26.80;58.20;;;;;;5340530;26;20052;-76
2024/05/07 08:25:52;;;;;;;3.55;1.50;;;25.50;60.20;;;;;;5337736;26;20096;-76
2024/05/07 08:28:21;;;;;;;3.00;1.40;;;23.70;64.30;;;;;;5352076;26;20020;-74
2024/05/07 08:30:47;;;;;;;4.13;1.40;;;22.50;67.00;;;;;;5371930;26;20125;-73
2024/05/07 08:33:13;;;;;;;6.78;1.75;;;21.40;70.50;;;;;;5345765;26;20005;-74
2024/05/07 08:35:39;;;;;;;3.17;1.48;;;21.30;71.60;;;;;;5345206;26;20021;-75
2024/05/07 08:38:07;;;;;;;5.97;1.80;;;21.10;73.20;;;;;;5345862;26;20074;-72
2024/05/07 08:40:33;;;;;;;4.70;1.70;;;21.50;72.20;;;;;;5345244;26;20011;-77
2024/05/07 08:42:59;;;;;;;2.53;1.23;;;21.80;71.40;;;;;;5346091;26;19993;-75
2024/05/07 08:45:26;;;;;;;3.88;1.42;;;22.00;72.30;;;;;;5360645;26;19996;-74
2024/05/07 08:47:54;;;;;;;8.57;2.45;;;22.60;70.90;;;;;;5379253;26;19996;-74
2024/05/07 08:50:21;;;;;;;4.93;1.50;;;22.80;69.90;;;;;;5380563;26;20000;-73
2024/05/07 08:52:47;;;;;;;7.32;1.75;;;23.70;69.40;;;;;;5380008;26;20004;-73
2024/05/07 08:55:22;;;;;;;7.35;2.50;;;24.70;67.10;;;;;;5380130;26;20448;-73
2024/05/07 08:57:48;;;;;;;4.45;1.92;;;25.20;65.30;;;;;;5380241;26;20351;-74
2024/05/07 09:00:14;;;;;;;4.28;2.10;;;26.30;63.70;;;;;;5367465;26;20004;-71
2024/05/07 09:02:40;;;;;;;8.57;2.28;;;28.80;59.40;;;;;;5353832;26;20428;-77
2024/05/07 09:05:07;;;;;;;7.28;2.60;;;30.00;56.10;;;;;;5354970;26;20075;-74
2024/05/07 09:07:33;;;;;;;14.43;3.10;;;30.20;54.80;;;;;;5345450;26;20037;-75
2024/05/07 09:10:02;;;;;;;28.98;5.22;;;29.50;54.80;;;;;;5345373;26;20337;-76
2024/05/07 09:12:28;;;;;;;3.78;1.60;;;29.80;54.90;;;;;;5314341;26;20415;-76
2024/05/07 09:14:53;;;;;;;2.60;1.38;;;30.90;53.60;;;;;;5345697;26;20000;-75
2024/05/07 09:17:19;;;;;;;2.80;1.30;;;30.90;53.50;;;;;;5354603;26;20058;-76
2024/05/07 09:19:45;;;;;;;4.05;1.58;;;30.20;53.10;;;;;;5355500;26;19997;-75
2024/05/07 09:22:17;;;;;;;4.03;1.70;;;29.60;54.30;;;;;;5349506;26;20032;-76
2024/05/07 09:24:52;;;;;;;;;;;27.50;57.30;;;;;;5353822;26;20099;-75
2024/05/07 09:27:18;;;;;;;4.53;1.77;;;26.40;59.40;;;;;;5366875;26;19932;-75
2024/05/07 09:29:43;;;;;;;3.83;1.60;;;25.20;60.30;;;;;;5356934;26;19997;-74
2024/05/07 09:32:10;;;;;;;3.47;1.60;;;24.40;62.20;;;;;;5353497;26;20009;-75
2024/05/07 09:34:37;;;;;;;5.18;1.58;;;24.70;62.70;;;;;;5361932;26;20001;-74
2024/05/07 09:37:06;;;;;;;4.50;1.60;;;24.40;64.70;;;;;;5355934;26;20001;-75
2024/05/07 09:39:39;;;;;;;5.53;1.77;;;23.50;66.50;;;;;;5347093;26;20355;-73
2024/05/07 09:42:16;;;;;;;6.43;1.92;;;22.70;68.30;;;;;;5344506;26;20356;-73
2024/05/07 09:45:06;;;;;;;3.22;1.33;;;22.10;69.10;;;;;;5354425;26;20000;-73
2024/05/07 09:47:33;;;;;;;5.20;1.90;;;21.40;71.20;;;;;;5342331;26;19997;-73
2024/05/07 09:50:01;;;;;;;9.65;2.47;;;21.00;73.30;;;;;;5344073;26;21070;-72
2024/05/07 09:52:28;;;;;;;6.93;2.05;;;20.60;75.40;;;;;;5344453;26;20478;-73
2024/05/07 09:54:55;;;;;;;4.28;2.35;;;20.40;76.40;;;;;;5375772;26;20015;-73
2024/05/07 09:57:21;;;;;;;7.63;1.83;;;20.40;75.60;;;;;;5379257;26;20015;-73
2024/05/07 09:59:47;;;;;;;7.63;2.08;;;20.50;76.60;;;;;;5380678;26;20082;-73
2024/05/07 10:02:14;;;;;;;3.47;1.98;;;20.70;77.00;;;;;;5371337;26;20000;-73
2024/05/07 10:04:40;;;;;;;3.42;2.08;;;20.70;76.70;;;;;;5353866;26;20333;-74
2024/05/07 10:07:05;;;;;;;12.27;3.10;;;20.70;75.40;;;;;;5366445;26;19997;-73
2024/05/07 10:09:41;;;;;;;3.92;2.00;;;20.70;76.20;;;;;;5347648;26;20055;-73
2024/05/07 10:12:07;;;;;;;4.20;2.00;;;20.70;76.80;;;;;;5366029;26;20015;-74
2024/05/07 10:14:35;;;;;;;4.15;2.38;;;20.50;77.80;;;;;;5382182;26;20019;-73
2024/05/07 10:17:05;;;;;;;5.65;2.65;;;20.20;77.70;;;;;;5382545;26;20449;-73
2024/05/07 10:19:33;;;;;;;7.55;2.40;;;20.00;77.90;;;;;;5357192;26;19997;-74
2024/05/07 10:22:00;;;;;;;6.10;2.72;;;19.80;79.80;;;;;;5317268;26;20528;-73
2024/05/07 10:24:25;;;;;;;4.85;2.85;;;19.50;80.40;;;;;;5346988;26;20009;-72
2024/05/07 10:27:05;;;;;;;4.55;2.42;;;19.40;80.40;;;;;;5358114;26;20317;-73
2024/05/07 10:29:35;;;;;;;5.22;2.53;;;19.40;81.10;;;;;;5347206;26;20015;-73
2024/05/07 10:32:01;;;;;;;3.75;1.95;;;19.70;80.40;;;;;;5353234;26;20185;-73
2024/05/07 10:34:47;;;;;;;4.28;2.20;;;19.90;79.50;;;;;;5381636;26;20012;-73
2024/05/07 10:37:13;;;;;;;3.95;2.05;;;19.90;80.40;;;;;;5356909;26;20013;-73
2024/05/07 10:39:40;;;;;;;5.82;2.28;;;19.80;80.20;;;;;;5346972;26;19993;-74
2024/05/07 10:42:13;;;;;;;4.30;2.60;;;19.80;80.80;;;;;;5348803;26;20045;-72
2024/05/07 10:44:43;;;;;;;4.22;1.50;;;19.70;81.80;;;;;;5353543;26;19993;-74
2024/05/07 10:47:10;;;;;;;2.97;1.70;;;19.60;83.20;;;;;;5365443;26;20336;-73
2024/05/07 10:49:56;;;;;;;4.80;1.67;;;19.50;81.80;;;;;;5361065;26;20437;-72
2024/05/07 10:52:26;;;;;;;5.05;2.17;;;19.40;84.80;;;;;;5357487;26;20025;-73
2024/05/07 10:54:52;;;;;;;4.45;2.42;;;19.30;83.70;;;;;;5346695;26;20020;-73
2024/05/07 10:57:18;;;;;;;5.38;2.50;;;19.20;84.50;;;;;;5347216;26;20349;-74
2024/05/07 10:59:46;;;;;;;5.82;2.63;;;19.10;85.20;;;;;;5346621;26;20032;-73
2024/05/07 11:02:12;;;;;;;3.97;2.13;;;19.00;86.30;;;;;;5378616;26;20000;-73
2024/05/07 11:04:42;;;;;;;4.28;2.50;;;19.20;86.30;;;;;;5382285;26;20007;-73
2024/05/07 11:07:07;;;;;;;5.32;2.45;;;19.40;86.30;;;;;;5371165;26;20001;-73
2024/05/07 11:09:33;;;;;;;4.80;2.50;;;19.50;85.70;;;;;;5346613;26;20016;-75
2024/05/07 11:11:59;;;;;;;4.65;2.30;;;19.50;85.70;;;;;;5362162;26;20015;-75
2024/05/07 11:14:27;;;;;;;5.63;1.90;;;19.60;85.40;;;;;;5382145;26;20134;-74
2024/05/07 11:16:53;;;;;;;3.72;2.50;;;19.70;85.00;;;;;;5381816;26;20004;-74
2024/05/07 11:19:23;;;;;;;6.22;2.00;;;19.40;85.60;;;;;;5355730;26;20016;-74
2024/05/07 11:21:49;;;;;;;3.65;2.22;;;19.40;86.80;;;;;;5347469;26;20011;-73
2024/05/07 11:24:14;;;;;;;3.60;2.20;;;19.60;87.00;;;;;;5346449;26;20048;-73
2024/05/07 11:26:41;;;;;;;4.50;2.10;;;19.70;86.00;;;;;;5346567;26;20020;-72
2024/05/07 11:29:08;;;;;;;4.53;2.40;;;19.60;87.00;;;;;;5353462;26;20436;-72
2024/05/07 11:31:34;;;;;;;3.97;2.47;;;19.60;86.90;;;;;;5381510;26;20019;-73
2024/05/07 11:34:00;;;;;;;4.90;2.83;;;19.10;88.50;;;;;;5356168;26;20001;-72
2024/05/07 11:36:25;;;;;;;5.35;2.58;;;19.30;88.10;;;;;;5368060;26;20025;-72
2024/05/07 11:38:51;;;;;;;5.38;2.72;;;19.60;88.10;;;;;;5375201;26;20019;-71
2024/05/07 11:41:17;;;;;;;3.60;2.20;;;19.70;87.40;;;;;;5350167;26;20016;-72
2024/05/07 11:43:43;;;;;;;4.88;2.75;;;19.70;88.00;;;;;;5364269;26;20100;-72
2024/05/07 11:46:09;;;;;;;6.60;3.25;;;19.60;88.20;;;;;;5356637;26;20000;-71
2024/05/07 11:48:35;;;;;;;10.68;3.95;;;19.50;88.50;;;;;;5346335;26;20004;-71
2024/05/07 11:51:02;;;;;;;5.35;3.20;;;19.00;88.80;;;;;;5345447;26;20021;-72
2024/05/07 11:53:28;;;;;;;8.50;3.65;;;18.80;90.00;;;;;;5311342;27;20020;-72
2024/05/07 11:55:54;;;;;;;7.07;3.17;;;18.40;90.60;;;;;;5319122;26;20013;-72
2024/05/07 11:58:20;;;;;;;7.63;3.58;;;18.40;91.00;;;;;;5381038;26;19996;-72
2024/05/07 12:00:47;;;;;;;6.82;3.95;;;18.40;91.50;;;;;;5381236;26;20054;-71
2024/05/07 12:03:12;;;;;;;5.78;2.88;;;18.00;92.20;;;;;;5381128;26;20340;-73
2024/05/07 12:05:38;;;;;;;4.47;2.47;;;18.10;92.60;;;;;;5363136;26;20001;-72
2024/05/07 12:08:04;;;;;;;5.13;2.50;;;18.40;92.50;;;;;;5345892;26;20008;-73
2024/05/07 12:10:30;;;;;;;5.03;2.33;;;18.60;92.20;;;;;;5349079;26;19993;-73
2024/05/07 12:12:56;;;;;;;3.85;2.25;;;19.00;91.90;;;;;;5350418;26;20007;-74
2024/05/07 12:15:21;;;;;;;5.95;2.30;;;19.20;91.60;;;;;;5346091;26;20012;-73
2024/05/07 12:17:47;;;;;;;3.65;2.08;;;19.20;91.20;;;;;;5346158;26;20123;-73
2024/05/07 12:20:12;;;;;;;5.10;2.33;;;19.20;90.90;;;;;;5345802;26;19997;-73
2024/05/07 12:28:07;;;;;;;3.63;1.77;;;18.70;91.70;;;;;;5317986;26;20453;-73
2024/05/07 12:30:33;;;;;;;4.85;2.30;;;18.60;91.90;;;;;;5369706;26;20000;-72
2024/05/07 12:32:58;;;;;;;8.20;2.97;;;18.60;91.70;;;;;;5347696;26;20015;-72
2024/05/07 12:35:25;;;;;;;4.90;2.28;;;18.30;93.00;;;;;;5380134;26;20008;-73
2024/05/07 12:37:53;;;;;;;7.00;4.15;;;18.40;93.20;;;;;;5380623;26;19996;-73
2024/05/07 12:40:19;;;;;;;4.97;4.47;;;18.10;94.00;;;;;;5380109;26;20000;-73
2024/05/07 12:42:44;;;;;;;7.25;4.35;;;17.90;94.20;;;;;;5380325;26;20001;-73
2024/05/07 12:45:10;;;;;;;7.25;4.18;;;17.80;95.20;;;;;;5379902;26;19996;-72
2024/05/07 12:47:37;;;;;;;6.63;4.75;;;17.50;96.00;;;;;;5380845;26;20329;-73
2024/05/07 12:50:02;;;;;;;7.03;3.00;;;17.60;96.50;;;;;;5379560;26;20000;-72